Overview Statistics Trail Chart Weather Telemetry Raw packets
 

This is the latest recevied weather packets stored in our database for station/object EA2AFZ-W. If no packets are shown the sender has not sent any weather packets the latest 10 day(s).

<< 6 7 8 9 10 11 12 >>
Time Temp. Humidity Pressure Rain* Wind** Luminosity Snow
1788266727 23.33° C 68% 1021 hPa 0 mm - - -
1788264925 23.33° C 68% 1021 hPa 0 mm - - -
1788263122 23.33° C 68% 1021 hPa 0 mm - - -
1788261320 23.33° C 69% 1021 hPa 0 mm - - -
1788259519 23.33° C 71% 1021 hPa 0 mm - - -
1788257716 22.78° C 74% 1021 hPa 0 mm - - -
1788255914 22.22° C 80% 1021 hPa 0 mm - - -
1788254111 22.22° C 81% 1021 hPa 0 mm - - -
1788252308 18.33° C 91% 1021 hPa 0 mm - - -
1788250507 18.33° C 92% 1021 hPa 0 mm - - -
1788248765 18.33° C 92% 1022 hPa 0 mm - - -
1788246962 18.89° C 88% 1022 hPa 0 mm - - -
1788245159 18.33° C 88% 1022 hPa 0 mm - - -
1788243357 17.78° C 88% 1021 hPa 0 mm - - -
1788241555 17.78° C 86% 1021 hPa 0 mm - - -
1788239752 17.78° C 83% 1021 hPa 0 mm - - -
1788237950 17.78° C 81% 1021 hPa 0 mm - - -
1788236148 17.22° C 75% 1022 hPa 0 mm - - -
1788234345 15.56° C 77% 1022 hPa 0 mm - - -
1788232542 15.56° C 75% 1022 hPa 0 mm - - -
1788230741 15° C 69% 1022 hPa 0 mm - - -
1788228937 15.56° C 75% 1022 hPa 0 mm - - -
1788227136 15.56° C 75% 1022 hPa 0 mm - - -
1788225333 15.56° C 74% 1023 hPa 0 mm - - -
1788223531 15.56° C 74% 1023 hPa 0 mm - - -

* Rain latest hour (hover to see other rain measurements)
** Current wind speed in m/s (hover to see current wind gust speed)